createdAt,value
2022-09-06T00:00:43.497Z,11.55
2022-09-06T00:03:10.455Z,10.95
2022-09-06T00:05:37.286Z,12.02
2022-09-06T00:08:05.474Z,12.93
2022-09-06T00:10:33.618Z,12.68
2022-09-06T00:13:02.271Z,12.23
2022-09-06T00:15:29.341Z,11.48
2022-09-06T00:17:59.461Z,10.70
2022-09-06T00:20:27.342Z,12.63
2022-09-06T00:23:02.029Z,12.35
2022-09-06T00:25:29.785Z,10.45
2022-09-06T00:27:57.710Z,10.88
2022-09-06T00:30:25.413Z,13.13
2022-09-06T00:32:52.918Z,10.70
2022-09-06T00:35:20.729Z,10.55
2022-09-06T00:37:47.606Z,12.75
2022-09-06T00:40:14.617Z,12.50
2022-09-06T00:42:41.300Z,12.15
2022-09-06T00:45:10.317Z,10.05
2022-09-06T00:47:40.218Z,12.82
2022-09-06T00:50:08.537Z,11.88
2022-09-06T00:52:36.847Z,13.32
2022-09-06T00:55:04.171Z,12.32
2022-09-06T00:57:32.119Z,12.20
2022-09-06T01:00:00.346Z,13.13
2022-09-06T01:02:27.064Z,10.85
2022-09-06T01:04:54.634Z,12.45
2022-09-06T01:07:21.227Z,13.52
2022-09-06T01:10:08.034Z,11.57
2022-09-06T01:12:53.998Z,11.73
2022-09-06T01:15:32.768Z,13.82
2022-09-06T01:18:13.780Z,12.93
2022-09-06T01:20:41.763Z,12.68
2022-09-06T01:23:23.115Z,13.32
2022-09-06T01:26:11.520Z,13.18
2022-09-06T01:28:46.142Z,13.02
2022-09-06T01:31:31.568Z,14.95
2022-09-06T01:34:11.716Z,13.00
2022-09-06T01:37:06.597Z,12.55
2022-09-06T01:39:35.764Z,13.57
2022-09-06T01:42:12.095Z,14.13
2022-09-06T01:45:01.091Z,13.70
2022-09-06T01:47:46.593Z,13.52
2022-09-06T01:50:31.201Z,17.00
2022-09-06T01:53:18.990Z,13.02
2022-09-06T01:56:00.265Z,13.02
2022-09-06T01:58:55.857Z,11.95
2022-09-06T02:01:33.850Z,15.43
2022-09-06T02:04:11.109Z,13.90
2022-09-06T02:06:43.677Z,12.38
2022-09-06T02:09:15.194Z,15.20
2022-09-06T02:12:02.536Z,14.77
2022-09-06T02:14:37.370Z,14.73
2022-09-06T02:17:05.750Z,15.07
2022-09-06T02:20:11.021Z,12.85
2022-09-06T02:22:41.535Z,12.95
2022-09-06T02:25:12.375Z,13.77
2022-09-06T02:27:39.530Z,12.77
2022-09-06T02:30:06.757Z,12.77
2022-09-06T02:32:39.194Z,14.07
2022-09-06T02:35:13.883Z,14.02
2022-09-06T02:37:42.311Z,12.35
2022-09-06T02:40:10.297Z,12.15
2022-09-06T02:42:36.986Z,15.10
2022-09-06T02:45:05.195Z,13.23
2022-09-06T02:47:31.870Z,11.88
2022-09-06T02:49:58.483Z,12.80
2022-09-06T02:52:25.179Z,13.68
2022-09-06T02:54:52.226Z,12.85
2022-09-06T02:57:18.915Z,11.00
2022-09-06T02:59:46.225Z,12.23
2022-09-06T03:02:12.949Z,12.15
2022-09-06T03:04:39.635Z,11.57
2022-09-06T03:07:06.250Z,10.85
2022-09-06T03:09:32.882Z,12.63
2022-09-06T03:11:59.506Z,10.95
2022-09-06T03:14:26.159Z,10.85
2022-09-06T03:16:52.963Z,12.30
2022-09-06T03:19:20.062Z,10.38
2022-09-06T03:21:46.690Z,11.70
2022-09-06T03:24:13.308Z,11.45
2022-09-06T03:26:39.913Z,12.70
2022-09-06T03:29:06.533Z,11.68
2022-09-06T03:31:33.182Z,12.32
2022-09-06T03:34:01.202Z,12.55
2022-09-06T03:36:27.850Z,12.48
2022-09-06T03:38:54.453Z,11.27
2022-09-06T03:41:21.104Z,10.52
2022-09-06T03:43:47.855Z,10.90
2022-09-06T03:46:14.641Z,11.10
2022-09-06T03:48:41.849Z,11.02
2022-09-06T03:51:08.445Z,10.45
2022-09-06T03:53:35.117Z,9.70
2022-09-06T03:56:01.893Z,10.82
2022-09-06T03:58:32.648Z,10.45
2022-09-06T04:01:08.363Z,10.77
2022-09-06T04:03:36.706Z,9.90
2022-09-06T04:06:04.446Z,12.00
2022-09-06T04:08:32.217Z,10.13
2022-09-06T04:10:59.787Z,10.23
2022-09-06T04:13:27.920Z,11.35
2022-09-06T04:15:54.745Z,11.38
2022-09-06T04:18:22.231Z,9.57
2022-09-06T04:20:50.594Z,9.38
2022-09-06T04:23:18.186Z,9.80
2022-09-06T04:25:52.973Z,9.65
2022-09-06T04:28:20.135Z,9.50
2022-09-06T04:30:53.943Z,10.43
2022-09-06T04:33:21.937Z,12.07
2022-09-06T04:35:50.111Z,11.02
2022-09-06T04:38:16.954Z,11.75
2022-09-06T04:40:43.659Z,11.75
2022-09-06T04:43:10.333Z,10.23
2022-09-06T04:45:37.176Z,9.60
2022-09-06T04:48:04.130Z,9.63
2022-09-06T04:50:30.905Z,11.50
2022-09-06T04:52:57.613Z,10.73
2022-09-06T04:55:26.348Z,8.90
2022-09-06T04:57:53.002Z,10.65
2022-09-06T05:00:19.732Z,10.82
2022-09-06T05:02:46.619Z,9.45
2022-09-06T05:05:13.297Z,11.15
2022-09-06T05:07:39.938Z,9.23
2022-09-06T05:10:06.833Z,10.13
2022-09-06T05:12:33.462Z,9.52
2022-09-06T05:15:00.070Z,9.95
2022-09-06T05:17:26.739Z,10.65
2022-09-06T05:19:53.379Z,9.85
2022-09-06T05:22:19.981Z,10.45
2022-09-06T05:24:46.607Z,8.77
2022-09-06T05:27:14.171Z,10.60
2022-09-06T05:29:40.975Z,10.10
2022-09-06T05:32:07.774Z,8.27
2022-09-06T05:34:34.471Z,9.20
2022-09-06T05:37:01.110Z,9.45
2022-09-06T05:39:27.736Z,8.93
2022-09-06T05:41:54.434Z,10.25
2022-09-06T05:44:21.045Z,10.77
2022-09-06T05:46:47.690Z,10.27
2022-09-06T05:49:14.326Z,9.43
2022-09-06T05:51:41.516Z,9.70
2022-09-06T05:54:10.557Z,10.52
2022-09-06T05:56:37.157Z,10.30
2022-09-06T05:59:04.413Z,9.65
2022-09-06T06:01:31.390Z,9.15
2022-09-06T06:04:03.364Z,10.73
2022-09-06T06:06:32.397Z,11.98
2022-09-06T06:08:59.549Z,11.52
2022-09-06T06:11:27.920Z,13.10
2022-09-06T06:13:54.627Z,13.85
2022-09-06T06:16:22.659Z,11.27
2022-09-06T06:18:52.189Z,12.73
2022-09-06T06:21:22.062Z,12.48
2022-09-06T06:23:55.370Z,13.05
2022-09-06T06:26:23.014Z,12.25
2022-09-06T06:28:49.841Z,13.23
2022-09-06T06:31:16.701Z,12.38
2022-09-06T06:33:44.241Z,12.45
2022-09-06T06:36:13.834Z,12.60
2022-09-06T06:38:42.541Z,12.05
2022-09-06T06:41:11.263Z,14.20
2022-09-06T06:43:38.163Z,15.90
2022-09-06T06:46:17.054Z,14.25
2022-09-06T06:48:45.041Z,12.82
2022-09-06T06:51:14.736Z,14.23
2022-09-06T06:53:41.543Z,13.93
2022-09-06T06:56:21.940Z,14.07
2022-09-06T06:58:50.810Z,11.13
2022-09-06T07:01:20.111Z,12.27
2022-09-06T07:03:47.465Z,13.55
2022-09-06T07:06:15.193Z,12.35
2022-09-06T07:08:42.783Z,13.10
2022-09-06T07:11:14.580Z,11.90
2022-09-06T07:13:41.441Z,12.32
2022-09-06T07:16:13.325Z,10.63
2022-09-06T07:18:43.302Z,12.13
2022-09-06T07:24:08.429Z,11.73
2022-09-06T07:26:37.543Z,12.98
2022-09-06T07:29:05.229Z,11.25
2022-09-06T07:34:20.357Z,14.00
2022-09-06T07:36:47.054Z,12.77
2022-09-06T07:39:14.067Z,11.95
2022-09-06T07:41:40.701Z,19.90
2022-09-06T07:44:07.317Z,16.02
2022-09-06T07:46:34.314Z,13.38
2022-09-06T07:49:03.422Z,10.85
2022-09-06T07:51:30.102Z,12.10
2022-09-06T07:56:43.351Z,12.25
2022-09-06T07:59:09.996Z,12.52
2022-09-06T08:01:40.092Z,11.23
2022-09-06T08:04:12.747Z,12.30
2022-09-06T08:09:28.836Z,12.65
2022-09-06T08:11:55.482Z,10.85
2022-09-06T08:14:22.109Z,11.52
2022-09-06T08:16:48.738Z,10.18
2022-09-06T08:19:15.509Z,12.50
2022-09-06T08:21:42.130Z,13.38
2022-09-06T08:24:12.049Z,13.02
2022-09-06T08:26:40.534Z,13.05
2022-09-06T08:29:08.943Z,13.02
2022-09-06T08:31:38.335Z,12.48
2022-09-06T08:34:05.268Z,15.07
2022-09-06T08:36:33.351Z,14.55
2022-09-06T08:39:02.263Z,12.48
2022-09-06T08:41:37.936Z,13.63
2022-09-06T08:47:04.232Z,12.68
2022-09-06T08:49:35.466Z,15.33
2022-09-06T08:52:41.831Z,12.88
2022-09-06T08:55:34.437Z,13.82
2022-09-06T08:58:29.038Z,13.07
2022-09-06T09:01:01.965Z,11.57
2022-09-06T09:03:36.504Z,10.27
2022-09-06T09:06:05.512Z,13.00
2022-09-06T09:09:01.838Z,11.65
2022-09-06T09:11:29.977Z,10.45
2022-09-06T09:14:05.705Z,12.82
2022-09-06T09:16:33.178Z,11.27
2022-09-06T09:19:02.962Z,10.60
2022-09-06T09:21:33.973Z,12.35
2022-09-06T09:24:06.698Z,14.98
2022-09-06T09:26:42.197Z,13.00
2022-09-06T09:29:12.361Z,13.27
2022-09-06T09:31:53.474Z,11.43
2022-09-06T09:34:34.497Z,10.53
2022-09-06T09:37:46.107Z,12.27
2022-09-06T09:40:15.914Z,11.90
2022-09-06T09:42:43.940Z,12.93
2022-09-06T09:45:26.937Z,10.73
2022-09-06T09:47:53.863Z,10.00
2022-09-06T09:50:28.823Z,10.55
2022-09-06T09:52:55.850Z,10.60
2022-09-06T09:55:24.918Z,10.80
2022-09-06T09:57:54.176Z,10.18
2022-09-06T10:00:36.325Z,11.05
2022-09-06T10:03:16.090Z,10.13
2022-09-06T10:05:56.375Z,11.68
2022-09-06T10:08:30.596Z,9.98
2022-09-06T10:10:58.023Z,9.25
2022-09-06T10:13:30.074Z,9.57
2022-09-06T10:15:58.854Z,8.60
2022-09-06T10:18:36.562Z,9.98
2022-09-06T10:21:07.455Z,9.82
2022-09-06T10:26:53.778Z,10.48
2022-09-06T10:29:34.275Z,9.68
2022-09-06T10:32:10.752Z,10.40
2022-09-06T10:34:46.236Z,8.27
2022-09-06T10:37:25.090Z,9.60
2022-09-06T10:40:12.593Z,9.38
2022-09-06T10:42:42.837Z,8.80
2022-09-06T10:45:32.890Z,9.50
2022-09-06T10:48:15.108Z,9.00
2022-09-06T10:50:53.383Z,10.05
2022-09-06T10:53:48.348Z,8.70
2022-09-06T10:56:24.436Z,9.85
2022-09-06T11:02:19.853Z,9.75
2022-09-06T11:10:45.246Z,10.48
2022-09-06T11:13:18.909Z,10.80
2022-09-06T11:16:00.619Z,10.50
2022-09-06T11:18:48.484Z,11.32
2022-09-06T11:21:40.120Z,11.55
2022-09-06T11:24:29.118Z,9.43
2022-09-06T11:27:05.452Z,9.27
2022-09-06T11:29:34.322Z,9.45
2022-09-06T11:32:20.313Z,9.25
2022-09-06T11:34:58.022Z,9.18
2022-09-06T11:37:32.736Z,9.43
2022-09-06T11:40:30.621Z,8.88
2022-09-06T11:42:59.248Z,8.15
2022-09-06T11:45:44.466Z,7.95
2022-09-06T11:48:34.479Z,8.65
2022-09-06T11:51:10.629Z,6.47
2022-09-06T11:53:49.566Z,8.18
2022-09-06T11:56:29.078Z,7.75
2022-09-06T11:59:29.221Z,8.60
2022-09-06T12:01:55.799Z,7.28
2022-09-06T12:04:23.932Z,7.47
2022-09-06T12:07:11.005Z,7.07
2022-09-06T12:09:38.854Z,8.27
2022-09-06T12:12:06.172Z,6.82
2022-09-06T12:14:35.917Z,7.82
2022-09-06T12:17:04.755Z,6.65
2022-09-06T12:19:44.102Z,7.63
2022-09-06T12:22:29.393Z,7.80
2022-09-06T12:25:40.951Z,6.30
2022-09-06T12:28:19.949Z,7.22
2022-09-06T12:30:48.724Z,7.65
2022-09-06T12:33:38.852Z,6.22
2022-09-06T12:36:17.290Z,6.60
2022-09-06T12:39:02.066Z,6.63
2022-09-06T12:41:31.816Z,7.40
2022-09-06T12:44:00.487Z,6.15
2022-09-06T12:46:30.013Z,7.35
2022-09-06T12:49:05.785Z,6.60
2022-09-06T12:51:33.482Z,8.70
2022-09-06T12:54:04.090Z,7.85
2022-09-06T12:56:35.626Z,6.32
2022-09-06T12:59:20.372Z,7.45
2022-09-06T13:02:20.978Z,6.75
2022-09-06T13:04:52.016Z,6.43
2022-09-06T13:07:21.180Z,7.43
2022-09-06T13:09:51.908Z,6.50
2022-09-06T13:12:37.634Z,7.45
2022-09-06T13:15:11.720Z,6.47
2022-09-06T13:17:38.710Z,7.95
2022-09-06T13:20:31.892Z,6.75
2022-09-06T13:23:11.021Z,6.75
2022-09-06T13:25:49.297Z,6.13
2022-09-06T13:28:26.191Z,6.95
2022-09-06T13:31:12.918Z,6.53
2022-09-06T13:33:40.730Z,5.45
2022-09-06T13:36:13.115Z,5.78
2022-09-06T13:38:40.211Z,7.32
2022-09-06T13:41:27.768Z,6.15
2022-09-06T13:44:07.730Z,6.20
2022-09-06T13:46:36.337Z,6.70
2022-09-06T13:49:03.483Z,7.60
2022-09-06T13:51:30.195Z,7.38
2022-09-06T13:54:23.310Z,5.75
2022-09-06T13:56:50.620Z,5.97
2022-09-06T13:59:18.682Z,6.85
2022-09-06T14:01:47.856Z,6.43
2022-09-06T14:04:19.612Z,8.55
2022-09-06T14:06:46.856Z,6.38
2022-09-06T14:09:13.691Z,6.38
2022-09-06T14:11:42.077Z,7.10
2022-09-06T14:14:12.233Z,7.37
2022-09-06T14:16:39.021Z,5.55
2022-09-06T14:19:05.861Z,6.65
2022-09-06T14:21:32.889Z,6.32
2022-09-06T14:24:03.877Z,6.40
2022-09-06T14:26:31.310Z,6.70
2022-09-06T14:28:57.970Z,7.38
2022-09-06T14:31:26.962Z,7.15
2022-09-06T14:33:54.878Z,5.75
2022-09-06T14:36:23.674Z,4.90
2022-09-06T14:38:50.806Z,6.63
2022-09-06T14:41:19.059Z,5.70
2022-09-06T14:43:52.961Z,6.30
2022-09-06T14:46:21.952Z,6.10
2022-09-06T14:48:49.361Z,6.53
2022-09-06T14:51:24.037Z,7.32
2022-09-06T14:53:54.309Z,7.32
2022-09-06T14:56:21.605Z,5.95
2022-09-06T14:58:48.626Z,5.78
2022-09-06T15:01:24.299Z,6.28
2022-09-06T15:03:58.979Z,5.72
2022-09-06T15:06:27.223Z,6.85
2022-09-06T15:08:59.167Z,7.28
2022-09-06T15:11:39.270Z,7.55
2022-09-06T15:14:08.666Z,6.75
2022-09-06T15:16:36.184Z,7.07
2022-09-06T15:19:02.973Z,6.50
2022-09-06T15:21:30.341Z,7.38
2022-09-06T15:23:57.183Z,7.50
2022-09-06T15:26:24.037Z,7.75
2022-09-06T15:28:50.722Z,4.88
2022-09-06T15:31:17.561Z,5.95
2022-09-06T15:33:44.391Z,5.63
2022-09-06T15:36:11.987Z,6.25
2022-09-06T15:38:43.168Z,7.28
2022-09-06T15:41:18.638Z,6.20
2022-09-06T15:43:47.689Z,6.45
2022-09-06T15:46:16.817Z,6.85
2022-09-06T15:48:48.962Z,6.70
2022-09-06T15:53:44.163Z,6.43
2022-09-06T15:56:14.968Z,7.03
2022-09-06T15:58:41.835Z,7.22
2022-09-06T16:01:17.549Z,7.65
2022-09-06T16:03:48.971Z,5.13
2022-09-06T16:09:00.888Z,5.93
2022-09-06T16:13:55.070Z,5.82
2022-09-06T16:16:22.719Z,5.85
2022-09-06T16:18:49.693Z,6.15
2022-09-06T16:21:21.479Z,5.75
2022-09-06T16:23:50.201Z,5.03
2022-09-06T16:26:21.345Z,6.78
2022-09-06T16:28:50.572Z,5.32
2022-09-06T16:31:18.366Z,5.95
2022-09-06T16:33:45.684Z,6.15
2022-09-06T16:36:13.866Z,6.32
2022-09-06T16:38:41.317Z,5.97
2022-09-06T16:41:21.845Z,6.75
2022-09-06T16:43:55.125Z,7.20
2022-09-06T16:46:24.193Z,5.20
2022-09-06T16:48:53.178Z,6.78
2022-09-06T16:51:22.026Z,5.72
2022-09-06T16:53:49.615Z,5.55
2022-09-06T16:56:18.557Z,4.68
2022-09-06T16:58:53.015Z,6.72
2022-09-06T17:01:20.830Z,5.70
2022-09-06T17:03:48.612Z,5.20
2022-09-06T17:06:15.760Z,4.35
2022-09-06T17:08:42.723Z,5.13
2022-09-06T17:11:15.431Z,4.70
2022-09-06T17:13:43.309Z,6.25
2022-09-06T17:16:28.799Z,4.60
2022-09-06T17:18:55.714Z,5.63
2022-09-06T17:21:24.203Z,5.93
2022-09-06T17:23:52.084Z,4.85
2022-09-06T17:26:21.081Z,7.05
2022-09-06T17:28:49.008Z,5.50
2022-09-06T17:31:16.603Z,6.75
2022-09-06T17:33:45.610Z,7.07
2022-09-06T17:36:15.115Z,7.40
2022-09-06T17:38:42.869Z,5.47
2022-09-06T17:41:19.934Z,5.43
2022-09-06T17:43:47.370Z,5.88
2022-09-06T17:46:14.347Z,5.75
2022-09-06T17:48:41.153Z,6.22
2022-09-06T17:51:08.620Z,6.80
2022-09-06T17:53:36.067Z,5.50
2022-09-06T17:56:05.135Z,6.72
2022-09-06T17:58:32.458Z,5.68
2022-09-06T18:01:07.196Z,6.63
2022-09-06T18:03:34.917Z,6.15
2022-09-06T18:06:22.685Z,6.70
2022-09-06T18:08:51.554Z,7.47
2022-09-06T18:11:25.628Z,6.80
2022-09-06T18:13:58.323Z,6.35
2022-09-06T18:16:26.391Z,6.20
2022-09-06T18:18:58.713Z,6.78
2022-09-06T18:23:56.869Z,6.70
2022-09-06T18:26:24.332Z,7.72
2022-09-06T18:28:52.837Z,6.95
2022-09-06T18:31:21.889Z,5.53
2022-09-06T18:33:48.570Z,7.55
2022-09-06T18:36:16.074Z,8.38
2022-09-06T18:38:43.394Z,5.95
2022-09-06T18:41:32.175Z,7.78
2022-09-06T18:44:00.631Z,6.82
2022-09-06T18:46:27.660Z,8.15
2022-09-06T18:48:55.548Z,7.63
2022-09-06T18:51:23.003Z,7.60
2022-09-06T18:53:49.706Z,7.03
2022-09-06T18:56:16.584Z,9.32
2022-09-06T18:58:43.414Z,6.95
2022-09-06T19:01:13.210Z,8.02
2022-09-06T19:03:41.368Z,7.65
2022-09-06T19:06:14.586Z,6.65
2022-09-06T19:08:41.878Z,8.25
2022-09-06T19:11:14.282Z,8.95
2022-09-06T19:13:41.966Z,7.60
2022-09-06T19:16:10.143Z,9.30
2022-09-06T19:18:37.331Z,9.30
2022-09-06T19:21:08.456Z,8.70
2022-09-06T19:23:37.791Z,7.13
2022-09-06T19:26:19.235Z,8.00
2022-09-06T19:28:51.103Z,7.57
2022-09-06T19:31:18.588Z,8.73
2022-09-06T19:33:47.461Z,7.40
2022-09-06T19:36:14.897Z,9.10
2022-09-06T19:39:01.951Z,8.93
2022-09-06T19:41:30.021Z,8.85
2022-09-06T19:43:58.105Z,9.23
2022-09-06T19:46:25.881Z,8.27
2022-09-06T19:48:54.076Z,6.53
2022-09-06T19:51:21.480Z,7.95
2022-09-06T19:53:53.382Z,8.60
2022-09-06T19:56:26.258Z,9.55
2022-09-06T19:58:55.298Z,7.75
2022-09-06T20:01:23.060Z,9.68
2022-09-06T20:03:50.188Z,8.30
2022-09-06T20:06:17.166Z,8.63
2022-09-06T20:08:44.054Z,8.13
2022-09-06T20:11:12.693Z,8.20
2022-09-06T20:13:39.694Z,9.20
2022-09-06T20:16:08.836Z,7.75
2022-09-06T20:18:36.120Z,8.82
2022-09-06T20:21:03.329Z,8.20
2022-09-06T20:23:31.918Z,6.75
2022-09-06T20:26:03.290Z,8.30
2022-09-06T20:28:30.625Z,9.68
2022-09-06T20:31:06.268Z,8.93
2022-09-06T20:33:33.795Z,10.05
2022-09-06T20:36:03.094Z,8.07
2022-09-06T20:38:31.439Z,7.68
2022-09-06T20:41:05.827Z,8.82
2022-09-06T20:43:36.379Z,8.20
2022-09-06T20:46:15.372Z,8.90
2022-09-06T20:48:44.885Z,9.05
2022-09-06T20:51:20.850Z,8.93
2022-09-06T20:53:53.566Z,10.00
2022-09-06T20:56:34.872Z,7.75
2022-09-06T20:59:03.986Z,18.15
2022-09-06T21:01:34.565Z,8.77
2022-09-06T21:04:03.475Z,8.90
2022-09-06T21:06:33.744Z,9.02
2022-09-06T21:09:00.556Z,9.00
2022-09-06T21:11:27.479Z,7.32
2022-09-06T21:13:56.581Z,8.32
2022-09-06T21:16:25.571Z,10.02
2022-09-06T21:18:53.843Z,7.22
2022-09-06T21:21:22.356Z,8.30
2022-09-06T21:23:49.399Z,9.93
2022-09-06T21:26:16.234Z,8.57
2022-09-06T21:28:43.925Z,9.73
2022-09-06T21:31:19.303Z,8.80
2022-09-06T21:33:48.996Z,7.85
2022-09-06T21:36:19.237Z,8.25
2022-09-06T21:38:52.519Z,9.20
2022-09-06T21:41:19.602Z,7.47
2022-09-06T21:43:46.743Z,7.57
2022-09-06T21:46:17.052Z,8.73
2022-09-06T21:48:46.175Z,6.68
2022-09-06T21:51:17.214Z,8.68
2022-09-06T21:53:45.514Z,9.32
2022-09-06T21:56:13.486Z,7.20
2022-09-06T21:58:40.996Z,9.70
2022-09-06T22:01:08.207Z,7.97
2022-09-06T22:03:37.446Z,9.75
2022-09-06T22:06:18.718Z,10.45
2022-09-06T22:08:46.314Z,9.73
2022-09-06T22:11:15.799Z,8.82
2022-09-06T22:13:43.467Z,8.63
2022-09-06T22:16:11.264Z,8.00
2022-09-06T22:18:38.501Z,8.43
2022-09-06T22:21:07.651Z,10.05
2022-09-06T22:23:34.870Z,8.73
2022-09-06T22:26:01.632Z,9.00
2022-09-06T22:28:28.472Z,10.00
2022-09-06T22:30:55.189Z,9.98
2022-09-06T22:33:21.930Z,10.18
2022-09-06T22:35:48.606Z,9.52
2022-09-06T22:38:15.345Z,9.27
2022-09-06T22:40:41.945Z,8.23
2022-09-06T22:43:08.620Z,9.68
2022-09-06T22:45:35.804Z,9.20
2022-09-06T22:48:02.845Z,10.38
2022-09-06T22:50:30.674Z,10.18
2022-09-06T22:52:57.478Z,11.27
2022-09-06T22:55:24.127Z,7.50
2022-09-06T22:57:50.774Z,9.85
2022-09-06T23:00:18.430Z,10.82
2022-09-06T23:02:45.074Z,10.57
2022-09-06T23:05:11.772Z,10.23
2022-09-06T23:07:38.491Z,8.07
2022-09-06T23:10:05.632Z,10.10
2022-09-06T23:12:32.287Z,9.65
2022-09-06T23:14:58.938Z,10.23
2022-09-06T23:17:25.613Z,9.80
2022-09-06T23:19:52.295Z,9.73
2022-09-06T23:22:18.918Z,9.90
2022-09-06T23:24:46.233Z,9.75
2022-09-06T23:27:13.066Z,10.85
2022-09-06T23:29:41.032Z,9.52
2022-09-06T23:32:07.820Z,10.38
2022-09-06T23:34:34.637Z,9.18
2022-09-06T23:37:01.295Z,12.63
2022-09-06T23:39:28.455Z,10.70
2022-09-06T23:41:55.886Z,11.65
2022-09-06T23:44:23.110Z,10.40
2022-09-06T23:46:49.993Z,10.55
2022-09-06T23:49:16.658Z,12.05
2022-09-06T23:51:44.197Z,11.82
2022-09-06T23:54:10.926Z,12.75
2022-09-06T23:56:37.580Z,12.38
2022-09-06T23:59:04.318Z,11.40
